Time;durP1;ratioP1;P1;durP2;ratioP2;P2;SDS_P1;SDS_P2;PMS_P1;PMS_P2;Temp;Humidity;BMP_temperature;BMP_pressure;BME280_temperature;BME280_humidity;BME280_pressure;Samples;Min_cycle;Max_cycle;Signal;HPM_P1;HPM_P2
2022/06/25 00:02:27;;;;;;;26.87;24.07;;;;;;;;;;6152964;23;20181;-82
2022/06/25 00:07:58;;;;;;;21.40;19.23;;;;;;;;;;6160379;23;20177;-82
2022/06/25 00:10:27;;;;;;;17.83;14.90;;;;;;;;;;6159649;23;20177;-82
2022/06/25 00:12:55;;;;;;;23.20;19.37;;;;;;;;;;6128146;22;20184;-82
2022/06/25 00:15:24;;;;;;;22.67;19.63;;;;;;;;;;6152860;23;20171;-82
2022/06/25 00:17:52;;;;;;;14.30;12.80;;;;;;;;;;6282309;22;20195;-82
2022/06/25 00:20:20;;;;;;;15.57;10.63;;;;;;;;;;6255546;22;20190;-83
2022/06/25 00:22:49;;;;;;;21.37;18.80;;;;;;;;;;6152686;23;20242;-82
2022/06/25 00:25:19;;;;;;;21.90;19.10;;;;;;;;;;6255723;22;20187;-82
2022/06/25 00:27:47;;;;;;;21.27;18.93;;;;;;;;;;6281996;22;20175;-82
2022/06/25 00:30:16;;;;;;;14.87;11.73;;;;;;;;;;6255733;22;20182;-82
2022/06/25 00:32:45;;;;;;;22.00;15.43;;;;;;;;;;6255984;22;20258;-82
2022/06/25 00:35:13;;;;;;;22.40;20.07;;;;;;;;;;6256168;22;20179;-82
2022/06/25 00:37:42;;;;;;;22.33;16.07;;;;;;;;;;6255012;22;20193;-83
2022/06/25 00:40:11;;;;;;;20.73;17.43;;;;;;;;;;6255372;22;20177;-82
2022/06/25 00:42:43;;;;;;;22.83;20.67;;;;;;;;;;6255969;22;20231;-81
2022/06/25 00:45:12;;;;;;;18.77;16.77;;;;;;;;;;6255737;22;20184;-81
2022/06/25 00:47:40;;;;;;;21.73;18.40;;;;;;;;;;6255440;22;20175;-82
2022/06/25 00:50:09;;;;;;;19.93;16.93;;;;;;;;;;6255987;22;20244;-82
2022/06/25 00:52:41;;;;;;;24.97;19.77;;;;;;;;;;6281496;22;20177;-82
2022/06/25 00:55:15;;;;;;;20.83;18.63;;;;;;;;;;6255733;22;20202;-82
2022/06/25 00:57:45;;;;;;;17.63;12.00;;;;;;;;;;6255999;22;20188;-82
2022/06/25 01:00:15;;;;;;;22.77;17.40;;;;;;;;;;6152388;22;20231;-83
2022/06/25 01:02:44;;;;;;;19.63;17.57;;;;;;;;;;6255874;22;20323;-83
2022/06/25 01:05:13;;;;;;;14.57;11.80;;;;;;;;;;6281853;22;20204;-82
2022/06/25 01:07:44;;;;;;;16.67;13.20;;;;;;;;;;6255975;22;20176;-82
2022/06/25 01:10:13;;;;;;;19.90;17.73;;;;;;;;;;6280969;22;20181;-82
2022/06/25 01:12:42;;;;;;;11.53;10.43;;;;;;;;;;6256113;22;20215;-82
2022/06/25 01:15:16;;;;;;;17.07;15.13;;;;;;;;;;6281069;22;20217;-82
2022/06/25 01:17:46;;;;;;;14.17;12.67;;;;;;;;;;6152758;23;20193;-83
2022/06/25 01:20:14;;;;;;;12.30;10.37;;;;;;;;;;6281529;22;20182;-83
2022/06/25 01:22:44;;;;;;;18.13;15.00;;;;;;;;;;6255372;22;20179;-83
2022/06/25 01:25:13;;;;;;;15.87;14.23;;;;;;;;;;6152592;23;20295;-82
2022/06/25 01:27:42;;;;;;;19.73;17.67;;;;;;;;;;6255729;22;20168;-83
2022/06/25 01:30:11;;;;;;;18.37;16.47;;;;;;;;;;6152113;23;20235;-83
2022/06/25 01:32:39;;;;;;;16.07;13.63;;;;;;;;;;6255422;22;20180;-82
2022/06/25 01:35:09;;;;;;;21.50;18.63;;;;;;;;;;6281238;22;20184;-82
2022/06/25 01:37:37;;;;;;;16.33;14.43;;;;;;;;;;6255339;22;20234;-82
2022/06/25 01:40:08;;;;;;;19.03;16.53;;;;;;;;;;6254955;22;20180;-82
2022/06/25 01:45:23;;;;;;;17.57;15.83;;;;;;;;;;6152135;23;20182;-82
2022/06/25 01:47:51;;;;;;;17.47;15.77;;;;;;;;;;6152443;23;20173;-82
2022/06/25 01:50:20;;;;;;;22.00;17.03;;;;;;;;;;6254919;22;20184;-82
2022/06/25 01:52:48;;;;;;;14.93;13.40;;;;;;;;;;6255596;22;20176;-82
2022/06/25 01:55:18;;;;;;;16.07;14.40;;;;;;;;;;6255104;22;20176;-82
2022/06/25 01:57:47;;;;;;;18.27;15.17;;;;;;;;;;6254786;22;20196;-82
2022/06/25 02:00:16;;;;;;;21.10;19.00;;;;;;;;;;6254807;22;20214;-82
2022/06/25 02:02:46;;;;;;;8.93;6.93;;;;;;;;;;6255188;22;20249;-83
2022/06/25 02:05:56;;;;;;;18.03;16.20;;;;;;;;;;6255013;22;20253;-83
2022/06/25 02:08:08;;;;;;;17.73;14.03;;;;;;;;;;6255349;22;20175;-83
2022/06/25 02:10:37;;;;;;;18.43;15.33;;;;;;;;;;6280548;22;20230;-83
2022/06/25 02:13:06;;;;;;;16.70;13.83;;;;;;;;;;6281211;22;20227;-83
2022/06/25 02:15:35;;;;;;;17.97;16.10;;;;;;;;;;6255148;22;20187;-83
2022/06/25 02:18:03;;;;;;;19.57;15.07;;;;;;;;;;6254735;22;20192;-83
2022/06/25 02:20:32;;;;;;;19.30;16.33;;;;;;;;;;6152096;23;20200;-83
2022/06/25 02:23:01;;;;;;;19.30;17.30;;;;;;;;;;6281236;22;20184;-82
2022/06/25 02:25:29;;;;;;;19.17;16.17;;;;;;;;;;6255174;22;20183;-82
2022/06/25 02:27:59;;;;;;;15.13;13.63;;;;;;;;;;6280726;22;20171;-82
2022/06/25 02:30:27;;;;;;;15.23;13.47;;;;;;;;;;6255320;22;20180;-82
2022/06/25 02:32:56;;;;;;;13.83;12.33;;;;;;;;;;6254777;22;20180;-82
2022/06/25 02:35:24;;;;;;;19.57;17.57;;;;;;;;;;6254882;22;20180;-82
2022/06/25 02:37:53;;;;;;;15.60;14.00;;;;;;;;;;6280669;22;20291;-82
2022/06/25 02:40:21;;;;;;;18.57;16.63;;;;;;;;;;6281132;22;20185;-82
2022/06/25 02:42:50;;;;;;;13.90;11.33;;;;;;;;;;6254864;22;20183;-82
2022/06/25 02:45:19;;;;;;;14.40;12.83;;;;;;;;;;6280890;22;20179;-82
2022/06/25 02:47:48;;;;;;;19.10;15.10;;;;;;;;;;6255304;22;20204;-82
2022/06/25 02:50:16;;;;;;;16.07;14.37;;;;;;;;;;6255005;22;20176;-82
2022/06/25 02:52:45;;;;;;;14.27;12.57;;;;;;;;;;6254645;22;20179;-82
2022/06/25 02:55:13;;;;;;;17.77;11.93;;;;;;;;;;6280612;22;20176;-82
2022/06/25 03:00:28;;;;;;;15.73;13.60;;;;;;;;;;6254892;22;20204;-82
2022/06/25 03:02:57;;;;;;;12.27;11.00;;;;;;;;;;6255062;22;20182;-82
2022/06/25 03:05:25;;;;;;;11.13;9.30;;;;;;;;;;6280608;22;20191;-81
2022/06/25 03:07:54;;;;;;;12.37;11.17;;;;;;;;;;6254598;22;20176;-82
2022/06/25 03:10:22;;;;;;;9.87;7.63;;;;;;;;;;6279872;22;20182;-81
2022/06/25 03:12:51;;;;;;;13.73;12.33;;;;;;;;;;6254314;22;20183;-82
2022/06/25 03:15:19;;;;;;;10.83;8.13;;;;;;;;;;6255162;22;20204;-82
2022/06/25 03:17:49;;;;;;;15.77;13.93;;;;;;;;;;6254928;22;20196;-82
2022/06/25 03:20:18;;;;;;;19.27;12.10;;;;;;;;;;6151863;23;20173;-82
2022/06/25 03:22:46;;;;;;;16.53;13.90;;;;;;;;;;6255107;22;20183;-82
2022/06/25 03:25:15;;;;;;;16.57;13.00;;;;;;;;;;6280610;22;20225;-83
2022/06/25 03:27:43;;;;;;;15.13;10.17;;;;;;;;;;6150640;23;20180;-82
2022/06/25 03:30:12;;;;;;;12.70;10.03;;;;;;;;;;6282698;22;20182;-83
2022/06/25 03:32:40;;;;;;;19.17;15.23;;;;;;;;;;6256831;22;20176;-82
2022/06/25 03:35:10;;;;;;;16.83;12.77;;;;;;;;;;6282359;22;20176;-82
2022/06/25 03:37:38;;;;;;;14.47;12.40;;;;;;;;;;6152648;23;20178;-82
2022/06/25 03:40:07;;;;;;;14.83;12.43;;;;;;;;;;6282379;22;20183;-82
2022/06/25 03:42:36;;;;;;;18.90;16.73;;;;;;;;;;6256229;22;20179;-83
2022/06/25 03:45:05;;;;;;;23.57;9.70;;;;;;;;;;6153191;23;20173;-82
2022/06/25 03:47:33;;;;;;;20.00;12.57;;;;;;;;;;6256382;22;20191;-83
2022/06/25 03:50:02;;;;;;;17.07;11.60;;;;;;;;;;6256933;22;20179;-83
2022/06/25 03:52:34;;;;;;;15.67;10.23;;;;;;;;;;6256832;22;20210;-83
2022/06/25 03:55:03;;;;;;;22.77;12.23;;;;;;;;;;6153259;23;20180;-84
2022/06/25 03:57:31;;;;;;;12.20;8.63;;;;;;;;;;6256603;22;20176;-83
2022/06/25 04:00:00;;;;;;;13.00;10.80;;;;;;;;;;6152998;22;20197;-83
2022/06/25 04:02:29;;;;;;;14.37;9.70;;;;;;;;;;6282089;22;20176;-84
2022/06/25 04:04:57;;;;;;;15.93;12.60;;;;;;;;;;6256847;22;20197;-83
2022/06/25 04:07:25;;;;;;;14.37;11.30;;;;;;;;;;6256584;22;20203;-83
2022/06/25 04:09:55;;;;;;;12.97;9.37;;;;;;;;;;6282720;22;20215;-83
2022/06/25 04:12:24;;;;;;;14.33;12.90;;;;;;;;;;6256792;22;20184;-83
2022/06/25 04:14:52;;;;;;;16.60;11.60;;;;;;;;;;6153104;23;20168;-83
2022/06/25 04:17:20;;;;;;;15.03;11.37;;;;;;;;;;6152930;23;20246;-83
2022/06/25 04:19:49;;;;;;;10.90;8.60;;;;;;;;;;6282441;22;20218;-83
2022/06/25 04:22:17;;;;;;;12.40;10.97;;;;;;;;;;6256445;22;20211;-83
2022/06/25 04:24:46;;;;;;;14.27;9.73;;;;;;;;;;6153536;23;20172;-83
2022/06/25 04:29:58;;;;;;;15.23;10.07;;;;;;;;;;6156033;22;20270;-83
2022/06/25 04:32:27;;;;;;;12.47;10.07;;;;;;;;;;6256006;22;20203;-83
2022/06/25 04:34:56;;;;;;;10.07;9.00;;;;;;;;;;6282224;22;20214;-84
2022/06/25 04:37:24;;;;;;;12.70;9.93;;;;;;;;;;6152988;23;20200;-83
2022/06/25 04:39:52;;;;;;;12.07;9.43;;;;;;;;;;6256255;22;20191;-83
2022/06/25 04:42:22;;;;;;;10.07;9.00;;;;;;;;;;6256563;22;20184;-83
2022/06/25 04:44:50;;;;;;;11.93;6.00;;;;;;;;;;6256200;22;20180;-84
2022/06/25 04:47:19;;;;;;;9.70;6.80;;;;;;;;;;6256872;22;20180;-83
2022/06/25 04:49:47;;;;;;;11.67;7.97;;;;;;;;;;6153022;23;20203;-84
2022/06/25 04:52:16;;;;;;;6.97;6.37;;;;;;;;;;6256542;22;20176;-84
2022/06/25 04:54:44;;;;;;;8.13;5.57;;;;;;;;;;6256290;22;20207;-84
2022/06/25 04:57:15;;;;;;;9.80;7.43;;;;;;;;;;6256687;22;20187;-84
2022/06/25 04:59:45;;;;;;;4.83;3.70;;;;;;;;;;6256436;22;20212;-84
2022/06/25 05:02:14;;;;;;;8.87;5.63;;;;;;;;;;6152961;23;20247;-84
2022/06/25 05:04:42;;;;;;;8.67;6.13;;;;;;;;;;6256207;22;20201;-84
2022/06/25 05:07:11;;;;;;;5.87;4.40;;;;;;;;;;6256070;22;20182;-84
2022/06/25 05:09:39;;;;;;;6.20;4.97;;;;;;;;;;6256836;22;20175;-84
2022/06/25 05:12:08;;;;;;;3.43;2.80;;;;;;;;;;6256171;22;20245;-83
2022/06/25 05:14:36;;;;;;;2.40;2.10;;;;;;;;;;6255814;22;20178;-84
2022/06/25 05:17:06;;;;;;;6.37;3.40;;;;;;;;;;6153000;23;20202;-84
2022/06/25 05:19:34;;;;;;;6.43;4.30;;;;;;;;;;6152966;23;20196;-84
2022/06/25 05:22:03;;;;;;;8.27;3.73;;;;;;;;;;6152891;23;20176;-84
2022/06/25 05:24:31;;;;;;;7.73;3.17;;;;;;;;;;6153249;23;20241;-84
2022/06/25 05:27:00;;;;;;;5.77;3.43;;;;;;;;;;6256069;22;20185;-83
2022/06/25 05:29:28;;;;;;;9.13;4.53;;;;;;;;;;6256226;22;20186;-83
2022/06/25 05:32:00;;;;;;;3.03;2.80;;;;;;;;;;6256458;22;20236;-83
2022/06/25 05:34:29;;;;;;;3.00;2.63;;;;;;;;;;6153242;23;20170;-84
2022/06/25 05:36:58;;;;;;;5.97;3.00;;;;;;;;;;6255977;22;20177;-83
2022/06/25 05:39:26;;;;;;;1.93;1.80;;;;;;;;;;6256231;22;20203;-84
2022/06/25 05:41:55;;;;;;;4.63;3.17;;;;;;;;;;6153171;23;20186;-84
2022/06/25 05:44:23;;;;;;;7.10;3.10;;;;;;;;;;6255810;22;20175;-83
2022/06/25 05:46:52;;;;;;;3.60;2.40;;;;;;;;;;6153053;23;20171;-82
2022/06/25 05:49:20;;;;;;;4.47;2.87;;;;;;;;;;6255888;22;20184;-82
2022/06/25 05:51:50;;;;;;;4.17;3.80;;;;;;;;;;6255434;22;20187;-82
2022/06/25 05:54:18;;;;;;;6.93;2.83;;;;;;;;;;6256239;22;20175;-82
2022/06/25 05:56:47;;;;;;;7.03;3.03;;;;;;;;;;6153146;23;20179;-82
2022/06/25 05:59:16;;;;;;;4.97;2.90;;;;;;;;;;6255262;22;20204;-83
2022/06/25 06:01:44;;;;;;;6.00;3.03;;;;;;;;;;6256267;22;20266;-83
2022/06/25 06:04:13;;;;;;;3.97;2.03;;;;;;;;;;6255406;22;20199;-82
2022/06/25 06:06:41;;;;;;;3.60;1.30;;;;;;;;;;6256243;22;20181;-82
2022/06/25 06:09:13;;;;;;;4.23;2.20;;;;;;;;;;6256145;22;20171;-82
2022/06/25 06:11:41;;;;;;;2.60;2.40;;;;;;;;;;6256513;22;20185;-83
2022/06/25 06:14:09;;;;;;;4.00;3.33;;;;;;;;;;6256323;22;20187;-82
2022/06/25 06:16:38;;;;;;;1.60;1.43;;;;;;;;;;6152707;23;20177;-82
2022/06/25 06:19:06;;;;;;;0.80;0.80;;;;;;;;;;6254758;22;20262;-81
2022/06/25 06:21:35;;;;;;;0.60;0.60;;;;;;;;;;6152677;23;20184;-83
2022/06/25 06:24:03;;;;;;;3.10;2.57;;;;;;;;;;6256240;22;20176;-82
2022/06/25 06:26:33;;;;;;;3.43;2.20;;;;;;;;;;6255711;22;20211;-82
2022/06/25 06:29:01;;;;;;;3.93;2.30;;;;;;;;;;6255328;22;20189;-82
2022/06/25 06:31:30;;;;;;;4.23;3.13;;;;;;;;;;6152851;23;20188;-82
2022/06/25 06:33:59;;;;;;;1.13;1.13;;;;;;;;;;6255405;22;20176;-83
2022/06/25 06:36:27;;;;;;;2.70;2.50;;;;;;;;;;6255261;22;20234;-83
2022/06/25 06:38:56;;;;;;;0.70;0.70;;;;;;;;;;6255433;22;20189;-83
2022/06/25 06:41:24;;;;;;;2.70;1.67;;;;;;;;;;6255623;22;20199;-83
2022/06/25 06:43:54;;;;;;;1.77;1.27;;;;;;;;;;6255209;22;20174;-83
2022/06/25 06:46:23;;;;;;;1.17;1.13;;;;;;;;;;6255099;22;20187;-83
2022/06/25 06:48:51;;;;;;;3.33;2.67;;;;;;;;;;6255844;22;20188;-83
2022/06/25 06:51:20;;;;;;;2.53;1.73;;;;;;;;;;6152409;23;20240;-83
2022/06/25 06:53:48;;;;;;;1.20;1.10;;;;;;;;;;6255445;22;20182;-83
2022/06/25 06:56:18;;;;;;;2.93;2.07;;;;;;;;;;6255295;22;20183;-83
2022/06/25 06:58:47;;;;;;;0.83;0.83;;;;;;;;;;6254985;22;20239;-83
2022/06/25 07:01:16;;;;;;;1.87;1.67;;;;;;;;;;6254643;22;20213;-83
2022/06/25 07:03:45;;;;;;;0.93;0.83;;;;;;;;;;6256551;22;20201;-83
2022/06/25 07:06:13;;;;;;;4.50;1.80;;;;;;;;;;6257508;22;20178;-83
2022/06/25 07:08:42;;;;;;;6.40;2.50;;;;;;;;;;6153681;23;20244;-83
2022/06/25 07:13:53;;;;;;;2.60;1.10;;;;;;;;;;6257409;22;20184;-83
2022/06/25 07:16:23;;;;;;;2.80;2.60;;;;;;;;;;6153803;23;20269;-83
2022/06/25 07:18:52;;;;;;;7.67;4.10;;;;;;;;;;6257902;22;20175;-83
2022/06/25 07:21:20;;;;;;;5.00;1.07;;;;;;;;;;6154062;23;20199;-83
2022/06/25 07:23:49;;;;;;;1.20;1.20;;;;;;;;;;6256698;22;20184;-83
2022/06/25 07:26:18;;;;;;;2.60;1.63;;;;;;;;;;6257430;22;20183;-83
2022/06/25 07:28:46;;;;;;;2.07;1.40;;;;;;;;;;6257530;22;20181;-83
2022/06/25 07:31:15;;;;;;;5.20;1.37;;;;;;;;;;6257454;22;20174;-83
2022/06/25 07:33:45;;;;;;;1.83;1.53;;;;;;;;;;6256908;22;20176;-83
2022/06/25 07:36:13;;;;;;;2.40;2.10;;;;;;;;;;6257406;22;20179;-83
2022/06/25 07:38:42;;;;;;;1.43;1.33;;;;;;;;;;6257326;22;20204;-83
2022/06/25 07:41:10;;;;;;;1.00;1.00;;;;;;;;;;6257796;22;20198;-83
2022/06/25 07:43:38;;;;;;;0.83;0.83;;;;;;;;;;6257550;22;20204;-83
2022/06/25 07:46:07;;;;;;;2.83;1.70;;;;;;;;;;6257029;22;20213;-83
2022/06/25 07:48:35;;;;;;;1.73;0.70;;;;;;;;;;6256334;22;20190;-83
2022/06/25 07:53:51;;;;;;;2.53;1.03;;;;;;;;;;6257240;22;20179;-83
2022/06/25 07:56:20;;;;;;;2.17;0.87;;;;;;;;;;6256653;22;20181;-83
2022/06/25 07:58:48;;;;;;;3.93;1.20;;;;;;;;;;6256942;22;20177;-83
2022/06/25 08:01:16;;;;;;;2.70;1.00;;;;;;;;;;6255941;22;20246;-83
2022/06/25 08:03:45;;;;;;;2.73;0.70;;;;;;;;;;6257317;22;20200;-84
2022/06/25 08:06:15;;;;;;;0.90;0.70;;;;;;;;;;6153371;23;20172;-83
2022/06/25 08:08:43;;;;;;;1.00;0.87;;;;;;;;;;6256432;22;20180;-83
2022/06/25 08:11:12;;;;;;;3.30;1.40;;;;;;;;;;6256460;22;20178;-83
2022/06/25 08:13:40;;;;;;;3.10;1.00;;;;;;;;;;6256349;22;20186;-83
2022/06/25 08:16:09;;;;;;;4.60;0.83;;;;;;;;;;6152900;23;20182;-84
2022/06/25 08:18:38;;;;;;;0.40;0.40;;;;;;;;;;6256724;22;20179;-84
2022/06/25 08:21:07;;;;;;;0.93;0.93;;;;;;;;;;6257125;22;20248;-84
2022/06/25 08:23:37;;;;;;;6.07;1.33;;;;;;;;;;6256041;22;20199;-83
2022/06/25 08:26:05;;;;;;;1.40;1.00;;;;;;;;;;6256581;22;20188;-83
2022/06/25 08:28:33;;;;;;;2.43;1.33;;;;;;;;;;6256837;22;20180;-83
2022/06/25 08:31:02;;;;;;;3.43;0.77;;;;;;;;;;6257163;22;20181;-83
2022/06/25 08:33:30;;;;;;;1.53;1.40;;;;;;;;;;6256791;22;20181;-83
2022/06/25 08:35:59;;;;;;;0.60;0.60;;;;;;;;;;6256777;22;20180;-83
2022/06/25 08:38:27;;;;;;;1.97;1.33;;;;;;;;;;6256905;22;20190;-83
2022/06/25 08:41:01;;;;;;;0.43;0.43;;;;;;;;;;6256941;22;20208;-83
2022/06/25 08:43:30;;;;;;;1.87;0.87;;;;;;;;;;6257259;22;20231;-83
2022/06/25 08:45:58;;;;;;;2.77;1.53;;;;;;;;;;6153337;23;20170;-83
2022/06/25 08:48:32;;;;;;;2.60;0.90;;;;;;;;;;6256512;22;20180;-83
2022/06/25 08:51:01;;;;;;;0.63;0.63;;;;;;;;;;6153333;23;20168;-83
2022/06/25 08:53:32;;;;;;;1.10;1.00;;;;;;;;;;6257358;22;20185;-83
2022/06/25 08:56:02;;;;;;;3.30;1.10;;;;;;;;;;6256776;22;20184;-83
2022/06/25 08:58:31;;;;;;;1.13;1.03;;;;;;;;;;6256711;22;20176;-83
2022/06/25 09:00:59;;;;;;;0.97;0.80;;;;;;;;;;6256457;22;20211;-83
2022/06/25 09:03:28;;;;;;;1.33;0.90;;;;;;;;;;6153175;23;20194;-83
2022/06/25 09:05:56;;;;;;;0.50;0.50;;;;;;;;;;6282041;22;20177;-83
2022/06/25 09:08:25;;;;;;;3.93;0.57;;;;;;;;;;6256230;22;20177;-83
2022/06/25 09:10:54;;;;;;;3.40;0.90;;;;;;;;;;6152877;23;20171;-84
2022/06/25 09:13:26;;;;;;;2.97;1.13;;;;;;;;;;6256013;22;20258;-83
2022/06/25 09:15:54;;;;;;;0.50;0.50;;;;;;;;;;6256102;22;20180;-83
2022/06/25 09:18:23;;;;;;;0.73;0.73;;;;;;;;;;6256215;22;20177;-82
2022/06/25 09:21:01;;;;;;;5.63;1.23;;;;;;;;;;6256515;22;20182;-83
2022/06/25 09:23:30;;;;;;;2.23;0.93;;;;;;;;;;6256229;22;20187;-82
2022/06/25 09:26:06;;;;;;;2.30;1.00;;;;;;;;;;6153419;23;20171;-82
2022/06/25 09:28:36;;;;;;;1.27;1.07;;;;;;;;;;6256208;22;20182;-82
2022/06/25 09:31:05;;;;;;;1.40;0.70;;;;;;;;;;6256432;22;20172;-84
2022/06/25 09:33:34;;;;;;;1.50;0.63;;;;;;;;;;6256929;22;20177;-83
2022/06/25 09:36:03;;;;;;;2.03;1.13;;;;;;;;;;6153519;23;20182;-84
2022/06/25 09:38:32;;;;;;;1.50;1.23;;;;;;;;;;6256578;22;20224;-83
2022/06/25 09:41:01;;;;;;;0.87;0.80;;;;;;;;;;6153477;23;20171;-83
2022/06/25 09:43:31;;;;;;;1.47;0.77;;;;;;;;;;6256106;22;20186;-83
2022/06/25 09:46:04;;;;;;;4.33;1.03;;;;;;;;;;6255786;22;20254;-83
2022/06/25 09:48:34;;;;;;;1.87;1.33;;;;;;;;;;6256441;22;20182;-83
2022/06/25 09:51:06;;;;;;;0.60;0.60;;;;;;;;;;6257088;22;20176;-83
2022/06/25 09:53:35;;;;;;;0.70;0.70;;;;;;;;;;6256455;22;20178;-83
2022/06/25 09:56:04;;;;;;;10.70;1.20;;;;;;;;;;6256099;22;20179;-82
2022/06/25 09:58:34;;;;;;;3.90;1.10;;;;;;;;;;6152910;23;20170;-83
2022/06/25 10:01:04;;;;;;;2.73;1.17;;;;;;;;;;6255824;22;20237;-83
2022/06/25 10:03:35;;;;;;;8.13;1.67;;;;;;;;;;6256765;22;20202;-83
2022/06/25 10:06:07;;;;;;;2.70;0.90;;;;;;;;;;6256171;22;20184;-82
2022/06/25 10:08:35;;;;;;;1.90;1.80;;;;;;;;;;6255848;22;20177;-83
2022/06/25 10:11:04;;;;;;;8.47;2.53;;;;;;;;;;6255899;22;20189;-83
2022/06/25 10:13:33;;;;;;;3.73;0.70;;;;;;;;;;6256105;22;20178;-84
2022/06/25 10:16:02;;;;;;;4.03;1.70;;;;;;;;;;6255923;22;20221;-83
2022/06/25 10:18:33;;;;;;;2.90;1.67;;;;;;;;;;6255923;22;20172;-84
2022/06/25 10:21:01;;;;;;;1.90;1.10;;;;;;;;;;6256545;22;20180;-84
2022/06/25 10:23:30;;;;;;;6.03;1.70;;;;;;;;;;6255744;22;20309;-84
2022/06/25 10:25:58;;;;;;;7.03;2.13;;;;;;;;;;6256251;22;20194;-84
2022/06/25 10:28:28;;;;;;;1.90;0.77;;;;;;;;;;6152936;23;20176;-84
2022/06/25 10:30:57;;;;;;;8.03;1.80;;;;;;;;;;6153219;23;20176;-84
2022/06/25 10:33:27;;;;;;;4.00;0.93;;;;;;;;;;6256019;22;20228;-84
2022/06/25 10:35:58;;;;;;;0.20;0.20;;;;;;;;;;6256296;22;20176;-84
2022/06/25 10:38:28;;;;;;;0.40;0.40;;;;;;;;;;6255847;22;20178;-83
2022/06/25 10:40:57;;;;;;;2.40;0.80;;;;;;;;;;6255899;22;20184;-84
2022/06/25 10:43:38;;;;;;;2.00;1.60;;;;;;;;;;6152923;23;20202;-84
2022/06/25 10:46:27;;;;;;;1.97;0.77;;;;;;;;;;6255894;22;20179;-84
2022/06/25 10:49:13;;;;;;;0.53;0.53;;;;;;;;;;6255830;22;20178;-84
2022/06/25 10:51:44;;;;;;;0.90;0.47;;;;;;;;;;6153394;23;20179;-83
2022/06/25 10:54:14;;;;;;;0.77;0.60;;;;;;;;;;6255611;22;20182;-84
2022/06/25 10:56:44;;;;;;;0.30;0.30;;;;;;;;;;6256049;22;20183;-84
2022/06/25 10:59:37;;;;;;;2.70;0.87;;;;;;;;;;6256500;22;20178;-83
2022/06/25 11:02:06;;;;;;;0.50;0.50;;;;;;;;;;6255184;22;20195;-84
2022/06/25 11:04:36;;;;;;;2.33;0.87;;;;;;;;;;6152917;23;20202;-84
2022/06/25 11:07:12;;;;;;;1.50;0.50;;;;;;;;;;6152599;23;20176;-83
2022/06/25 11:09:42;;;;;;;1.03;0.57;;;;;;;;;;6256009;22;20181;-83
2022/06/25 11:12:10;;;;;;;0.40;0.40;;;;;;;;;;6152335;23;20171;-84
2022/06/25 11:14:38;;;;;;;0.33;0.33;;;;;;;;;;6255259;22;20183;-84
2022/06/25 11:17:08;;;;;;;1.40;1.27;;;;;;;;;;6255829;22;20174;-84
2022/06/25 11:19:38;;;;;;;0.50;0.50;;;;;;;;;;6255362;22;20182;-84
2022/06/25 11:22:07;;;;;;;0.57;0.57;;;;;;;;;;6255275;22;20246;-84
2022/06/25 11:28:47;;;;;;;1.33;1.00;;;;;;;;;;6255364;22;20183;-84
2022/06/25 11:30:14;;;;;;;4.23;2.40;;;;;;;;;;6255140;22;20183;-84
2022/06/25 11:32:44;;;;;;;0.93;0.57;;;;;;;;;;6255255;22;20185;-84
2022/06/25 11:35:13;;;;;;;0.57;0.53;;;;;;;;;;6255546;22;20184;-84
2022/06/25 11:37:41;;;;;;;4.80;1.93;;;;;;;;;;6280784;22;20176;-84
2022/06/25 11:40:17;;;;;;;5.60;1.60;;;;;;;;;;6255624;22;20264;-84
2022/06/25 11:42:47;;;;;;;8.07;2.13;;;;;;;;;;6255307;22;20252;-83
2022/06/25 11:45:15;;;;;;;1.00;0.90;;;;;;;;;;6151981;23;20190;-83
2022/06/25 11:47:44;;;;;;;3.00;1.00;;;;;;;;;;6152035;23;20184;-84
2022/06/25 11:50:13;;;;;;;1.33;0.57;;;;;;;;;;6256174;22;20182;-84
2022/06/25 11:52:44;;;;;;;1.90;0.53;;;;;;;;;;6256524;22;20172;-84
2022/06/25 11:55:13;;;;;;;0.43;0.43;;;;;;;;;;6153867;23;20169;-84
2022/06/25 11:57:44;;;;;;;7.93;1.17;;;;;;;;;;6257137;22;20190;-84
2022/06/25 12:00:13;;;;;;;2.43;1.40;;;;;;;;;;6257611;22;20209;-83
2022/06/25 12:02:42;;;;;;;1.90;1.07;;;;;;;;;;6257102;22;20197;-84
2022/06/25 12:05:12;;;;;;;5.30;1.40;;;;;;;;;;6257097;22;20203;-84
2022/06/25 12:07:45;;;;;;;1.30;1.03;;;;;;;;;;6257295;22;20179;-83
2022/06/25 12:10:14;;;;;;;1.87;0.70;;;;;;;;;;6257660;22;20177;-83
2022/06/25 12:12:44;;;;;;;10.33;2.70;;;;;;;;;;6257278;22;20173;-84
2022/06/25 12:15:12;;;;;;;2.43;1.27;;;;;;;;;;6257172;22;20212;-84
2022/06/25 12:17:48;;;;;;;6.43;1.77;;;;;;;;;;6257621;22;20176;-84
2022/06/25 12:20:17;;;;;;;4.80;1.40;;;;;;;;;;6257472;22;20237;-84
2022/06/25 12:22:52;;;;;;;2.53;1.80;;;;;;;;;;6257748;22;20283;-84
2022/06/25 12:25:24;;;;;;;1.57;1.23;;;;;;;;;;6257520;22;20185;-84
2022/06/25 12:27:54;;;;;;;3.00;1.83;;;;;;;;;;6257200;22;20204;-84
2022/06/25 12:30:23;;;;;;;2.33;1.13;;;;;;;;;;6257189;22;20191;-84
2022/06/25 12:32:52;;;;;;;3.70;1.40;;;;;;;;;;6257657;22;20179;-84
2022/06/25 12:35:22;;;;;;;0.50;0.50;;;;;;;;;;6154342;23;20179;-84
2022/06/25 12:38:01;;;;;;;3.13;0.63;;;;;;;;;;6256892;22;20179;-84
2022/06/25 12:40:30;;;;;;;4.93;0.97;;;;;;;;;;6257135;22;20195;-84
2022/06/25 12:43:01;;;;;;;2.73;1.50;;;;;;;;;;6257037;22;20207;-84
2022/06/25 12:45:32;;;;;;;1.83;1.47;;;;;;;;;;6153442;23;20182;-85
2022/06/25 12:48:00;;;;;;;0.60;0.60;;;;;;;;;;6256538;22;20192;-84
2022/06/25 12:50:30;;;;;;;0.73;0.73;;;;;;;;;;6256732;22;20184;-84
2022/06/25 12:53:06;;;;;;;1.13;0.90;;;;;;;;;;6256709;22;20174;-84
2022/06/25 12:55:35;;;;;;;4.27;0.90;;;;;;;;;;6256663;22;20187;-84
2022/06/25 12:58:05;;;;;;;3.33;1.73;;;;;;;;;;6256696;22;20181;-84
2022/06/25 13:00:35;;;;;;;4.60;1.20;;;;;;;;;;6153069;22;20211;-84
2022/06/25 13:03:05;;;;;;;1.20;1.13;;;;;;;;;;6256260;22;20199;-84
2022/06/25 13:05:34;;;;;;;1.43;0.80;;;;;;;;;;6256428;22;20175;-84
2022/06/25 13:08:03;;;;;;;1.20;0.63;;;;;;;;;;6256592;22;20190;-84
2022/06/25 13:10:32;;;;;;;2.10;1.90;;;;;;;;;;6257268;22;20179;-84
2022/06/25 13:13:03;;;;;;;0.63;0.63;;;;;;;;;;6257011;22;20179;-84
2022/06/25 13:15:34;;;;;;;0.77;0.77;;;;;;;;;;6154072;23;20185;-84
2022/06/25 13:18:03;;;;;;;4.10;1.33;;;;;;;;;;6256640;22;20176;-84
2022/06/25 13:20:32;;;;;;;1.40;1.30;;;;;;;;;;6256516;22;20183;-84
2022/06/25 13:23:00;;;;;;;0.50;0.37;;;;;;;;;;6256350;22;20270;-84
2022/06/25 13:25:29;;;;;;;3.87;0.57;;;;;;;;;;6154088;23;20201;-84
2022/06/25 13:27:57;;;;;;;0.20;0.20;;;;;;;;;;6153163;23;20172;-83
2022/06/25 13:30:26;;;;;;;1.00;0.73;;;;;;;;;;6153755;23;20180;-84
2022/06/25 13:33:15;;;;;;;0.80;0.80;;;;;;;;;;6256645;22;20177;-83
2022/06/25 13:35:44;;;;;;;0.43;0.43;;;;;;;;;;6256778;22;20180;-84
2022/06/25 13:38:12;;;;;;;0.77;0.77;;;;;;;;;;6256185;22;20180;-84
2022/06/25 13:40:41;;;;;;;3.07;1.67;;;;;;;;;;6256338;22;20186;-85
2022/06/25 13:43:09;;;;;;;1.57;1.13;;;;;;;;;;6256049;22;20211;-83
2022/06/25 13:45:38;;;;;;;0.87;0.83;;;;;;;;;;6256529;22;20186;-83
2022/06/25 13:48:07;;;;;;;1.07;0.97;;;;;;;;;;6255776;22;20265;-83
2022/06/25 13:50:37;;;;;;;4.70;1.27;;;;;;;;;;6255835;22;20178;-83
2022/06/25 13:53:06;;;;;;;10.53;1.80;;;;;;;;;;6255162;22;20172;-83
2022/06/25 13:55:34;;;;;;;1.23;1.13;;;;;;;;;;6255824;22;20179;-83
2022/06/25 13:58:03;;;;;;;4.47;1.43;;;;;;;;;;6255811;22;20289;-82
2022/06/25 14:00:31;;;;;;;3.63;1.27;;;;;;;;;;6168842;22;20207;-83
2022/06/25 14:03:00;;;;;;;1.30;1.20;;;;;;;;;;6255754;22;20180;-83
2022/06/25 14:05:28;;;;;;;0.43;0.43;;;;;;;;;;6153586;23;20253;-83
2022/06/25 14:07:58;;;;;;;0.30;0.30;;;;;;;;;;6153398;23;20180;-83
2022/06/25 14:10:26;;;;;;;2.40;1.30;;;;;;;;;;6256705;22;20205;-83
2022/06/25 14:12:55;;;;;;;1.13;1.03;;;;;;;;;;6256310;22;20172;-83
2022/06/25 14:15:23;;;;;;;0.77;0.70;;;;;;;;;;6256030;22;20174;-83
2022/06/25 14:18:00;;;;;;;1.23;1.13;;;;;;;;;;6255811;22;20232;-83
2022/06/25 14:20:29;;;;;;;1.53;1.43;;;;;;;;;;6256008;22;20232;-82
2022/06/25 14:22:59;;;;;;;4.33;0.93;;;;;;;;;;6255810;22;20237;-83
2022/06/25 14:25:28;;;;;;;2.10;0.87;;;;;;;;;;6256342;22;20197;-83
2022/06/25 14:27:57;;;;;;;0.30;0.30;;;;;;;;;;6256264;22;20269;-83
2022/06/25 14:30:26;;;;;;;3.20;1.60;;;;;;;;;;6255651;22;20209;-83
2022/06/25 14:32:55;;;;;;;0.40;0.40;;;;;;;;;;6255667;22;20175;-83
2022/06/25 14:35:23;;;;;;;3.47;1.30;;;;;;;;;;6255642;22;20270;-83
2022/06/25 14:43:26;;;;;;;1.40;1.23;;;;;;;;;;6255685;22;20206;-83
2022/06/25 14:45:54;;;;;;;2.90;1.97;;;;;;;;;;6152624;23;20172;-83
2022/06/25 14:48:23;;;;;;;2.30;1.07;;;;;;;;;;6255596;22;20179;-83
2022/06/25 14:50:51;;;;;;;1.10;1.00;;;;;;;;;;6255677;22;20193;-83
2022/06/25 14:53:20;;;;;;;1.80;1.67;;;;;;;;;;6255193;22;20182;-83
2022/06/25 14:55:50;;;;;;;0.37;0.37;;;;;;;;;;6255683;22;20183;-83
2022/06/25 14:58:18;;;;;;;0.83;0.83;;;;;;;;;;6255486;22;20215;-82
2022/06/25 15:00:47;;;;;;;0.77;0.77;;;;;;;;;;6255760;22;20209;-83
2022/06/25 15:03:16;;;;;;;0.30;0.30;;;;;;;;;;6255175;22;20221;-83
2022/06/25 15:05:46;;;;;;;1.13;1.03;;;;;;;;;;6256054;22;20197;-83
2022/06/25 15:08:15;;;;;;;2.90;0.90;;;;;;;;;;6256066;22;20265;-83
2022/06/25 15:10:49;;;;;;;1.37;0.50;;;;;;;;;;6256073;22;20180;-82
2022/06/25 15:13:17;;;;;;;0.40;0.40;;;;;;;;;;6255852;22;20256;-83
2022/06/25 15:15:46;;;;;;;3.63;1.33;;;;;;;;;;6255740;22;20199;-83